Observations for BOLZANO CIV IT-AFB, Italy (LIPB)

LIPB 200650Z 00000KT CAVOK 13/05 Q1030  
LIPB 200550Z VRB02KT CAVOK 09/05 Q1030  
LIPB 200550Z VRB02KT CAVOK 09/05 Q1030 RMK MON LIB
LIPB 200450Z VRB01KT CAVOK 07/05 Q1030  
LIPB 200450Z VRB01KT CAVOK 07/05 Q1030 RMK MON LIB
LIPB 192050Z VRB03KT CAVOK 16/04 Q1028  
LIPB 192050Z VRB03KT CAVOK 16/04 Q1028 RMK MON INVIS
LIPB 191950Z 18005KT 140V220 CAVOK 17/05 Q1027  
LIPB 191950Z 18005KT 140V220 CAVOK 17/05 Q1027 RMK MON INVIS
LIPB 191850Z 16007KT CAVOK 18/04 Q1026  
LIPB 191850Z 16007KT CAVOK 18/04 Q1026 RMK MON LIB
LIPB 191750Z 15006KT 110V190 CAVOK 19/03 Q1025  
LIPB 191750Z 15006KT 110V190 CAVOK 19/03 Q1025 RMK MON LIB
LIPB 191650Z 18005KT CAVOK 22/04 Q1025  
LIPB 191650Z 18005KT CAVOK 22/04 Q1025 RMK MON LIB
LIPB 191550Z 19005KT 150V210 9999 FEW070 24/02 Q1025
LIPB 191550Z 19005KT 150V210 9999 FEW070 24/02 Q1025 RMK MON LIB
LIPB 191450Z 19004KT 150V260 9999 FEW070 24/02 Q1025
LIPB 191450Z 19004KT 150V260 9999 FEW070 24/02 Q1025 RMK MON LIB
LIPB 191350Z 18004KT 100V240 CAVOK 24/00 Q1026  
LIPB 191350Z 18004KT 100V240 CAVOK 24/00 Q1026 RMK MON LIB
LIPB 191250Z VRB07KT 9999 FEW070 23/03 Q1027
LIPB 191250Z VRB07KT 9999 FEW070 23/03 Q1027 RMK MON LIB
LIPB 191150Z 00000KT 9999 FEW060 22/07 Q1027
LIPB 191150Z 00000KT 9999 FEW060 22/07 Q1027 RMK MON LIB
LIPB 191050Z VRB03KT 9999 FEW060 20/08 Q1028
LIPB 191050Z VRB03KT 9999 FEW060 20/08 Q1028 RMK MON LIB
LIPB 190950Z VRB03KT 9999 FEW060 19/07 Q1029
LIPB 190950Z VRB03KT 9999 FEW060 19/07 Q1029 RMK MON LIB
LIPB 190850Z VRB01KT 9999 FEW060 17/08 Q1030
LIPB 190850Z VRB01KT 9999 FEW060 17/08 Q1030 RMK MON LIB
LIPB 190750Z VRB01KT 9999 FEW050 15/08 Q1030
LIPB 190750Z VRB01KT 9999 FEW050 15/08 Q1030 RMK MON CLD CIME CUF
LIPB 190650Z VRB01KT 9999 FEW050 14/08 Q1030
LIPB 190650Z VRB01KT 9999 FEW050 14/08 Q1030 RMK MON LIB